Time;durP1;ratioP1;P1;durP2;ratioP2;P2;SDS_P1;SDS_P2;PMS_P1;PMS_P2;Temp;Humidity;BMP_temperature;BMP_pressure;BME280_temperature;BME280_humidity;BME280_pressure;Samples;Min_cycle;Max_cycle;Signal;HPM_P1;HPM_P2
2022/03/26 00:01:38;;;;;;;;;;;10.10;42.20;;;;;;6309721;22;19911;-87
2022/03/26 00:04:03;;;;;;;;;;;10.10;42.20;;;;;;6282182;22;19910;-85
2022/03/26 00:06:29;;;;;;;;;;;10.00;42.10;;;;;;6310855;22;19965;-86
2022/03/26 00:08:55;;;;;;;;;;;10.00;42.10;;;;;;6282884;22;19907;-87
2022/03/26 00:11:20;;;;;;;;;;;10.00;42.00;;;;;;6308702;22;20232;-86
2022/03/26 00:13:46;;;;;;;;;;;10.00;42.00;;;;;;6310782;22;19971;-86
2022/03/26 00:16:11;;;;;;;;;;;9.90;42.00;;;;;;6282327;22;19909;-86
2022/03/26 00:18:38;;;;;;;;;;;9.90;42.10;;;;;;6309811;22;19911;-86
2022/03/26 00:21:04;;;;;;;;;;;9.90;42.10;;;;;;6310295;22;19933;-85
2022/03/26 00:23:29;;;;;;;;;;;9.80;42.10;;;;;;6311149;22;20282;-86
2022/03/26 00:25:58;;;;;;;;;;;9.80;42.10;;;;;;6309514;22;19907;-85
2022/03/26 00:28:24;;;;;;;;;;;9.80;42.10;;;;;;6282114;22;19915;-87
2022/03/26 00:30:50;;;;;;;;;;;9.80;42.20;;;;;;6283183;22;19903;-87
2022/03/26 00:33:16;;;;;;;;;;;9.70;42.30;;;;;;6314122;22;19918;-86
2022/03/26 00:35:42;;;;;;;;;;;9.70;42.30;;;;;;6313542;22;19903;-86
2022/03/26 00:38:08;;;;;;;;;;;9.70;42.30;;;;;;6313848;22;20311;-86
2022/03/26 00:40:33;;;;;;;;;;;9.70;42.30;;;;;;6286470;22;19946;-86
2022/03/26 00:42:59;;;;;;;;;;;9.70;42.30;;;;;;6316036;22;19918;-89
2022/03/26 00:45:26;;;;;;;;;;;9.60;42.30;;;;;;6315366;22;19929;-89
2022/03/26 00:47:52;;;;;;;;;;;9.60;42.40;;;;;;6288484;22;19911;-89
2022/03/26 00:50:17;;;;;;;;;;;9.60;42.40;;;;;;6315790;22;20041;-90
2022/03/26 00:52:43;;;;;;;;;;;9.50;42.50;;;;;;6289247;22;19958;-89
2022/03/26 00:55:08;;;;;;;;;;;9.50;42.50;;;;;;6314277;22;19907;-89
2022/03/26 00:57:34;;;;;;;;;;;9.40;42.60;;;;;;6288849;22;19959;-89
2022/03/26 00:59:59;;;;;;;;;;;9.40;42.70;;;;;;6287992;22;19930;-89
2022/03/26 01:02:25;;;;;;;;;;;9.40;42.80;;;;;;6288169;22;19891;-89
2022/03/26 01:04:50;;;;;;;;;;;9.40;42.80;;;;;;6288084;22;19906;-90
2022/03/26 01:07:16;;;;;;;;;;;9.40;42.70;;;;;;6286459;22;19907;-90
2022/03/26 01:09:41;;;;;;;;;;;9.30;42.70;;;;;;6315644;22;19907;-89
2022/03/26 01:12:07;;;;;;;;;;;9.30;42.70;;;;;;6288196;22;19907;-90
2022/03/26 01:14:33;;;;;;;;;;;9.30;42.70;;;;;;6315266;22;19914;-89
2022/03/26 01:17:00;;;;;;;;;;;9.30;42.70;;;;;;6287826;22;19907;-90
2022/03/26 01:19:25;;;;;;;;;;;9.30;42.70;;;;;;6288036;22;19911;-90
2022/03/26 01:21:53;;;;;;;;;;;9.20;42.70;;;;;;6315383;22;19925;-89
2022/03/26 01:24:19;;;;;;;;;;;9.20;42.80;;;;;;6287523;22;20001;-89
2022/03/26 01:26:44;;;;;;;;;;;9.10;42.80;;;;;;6313011;22;19915;-90
2022/03/26 01:29:10;;;;;;;;;;;9.10;42.80;;;;;;6287265;22;19994;-90
2022/03/26 01:31:37;;;;;;;;;;;9.10;42.80;;;;;;6314809;22;19914;-89
2022/03/26 01:34:03;;;;;;;;;;;9.00;42.90;;;;;;6287627;22;19911;-89
2022/03/26 01:36:28;;;;;;;;;;;9.00;42.90;;;;;;6287654;22;19988;-89
2022/03/26 01:38:54;;;;;;;;;;;9.00;43.00;;;;;;6287699;22;19918;-89
2022/03/26 01:41:20;;;;;;;;;;;8.90;43.00;;;;;;6314731;22;20334;-89
2022/03/26 01:43:46;;;;;;;;;;;8.90;43.10;;;;;;6315304;22;19911;-89
2022/03/26 01:46:12;;;;;;;;;;;8.90;43.20;;;;;;6312616;22;19907;-90
2022/03/26 01:48:38;;;;;;;;;;;8.80;43.30;;;;;;6313769;22;19911;-89
2022/03/26 01:51:14;;;;;;;;;;;8.80;43.30;;;;;;6287341;22;19911;-90
2022/03/26 01:53:58;;;;;;;;;;;8.80;43.30;;;;;;6314617;22;19913;-90
2022/03/26 01:56:24;;;;;;;;;;;8.70;43.40;;;;;;6286443;22;19929;-91
2022/03/26 01:58:50;;;;;;;;;;;8.70;43.50;;;;;;6287024;22;20311;-88
2022/03/26 02:01:16;;;;;;;;;;;8.70;43.60;;;;;;6314190;22;19911;-89
2022/03/26 02:03:42;;;;;;;;;;;8.60;43.50;;;;;;6313017;22;19930;-91
2022/03/26 02:06:09;;;;;;;;;;;8.60;43.50;;;;;;6286687;22;19994;-89
2022/03/26 02:08:35;;;;;;;;;;;8.50;43.50;;;;;;6286466;22;19907;-89
2022/03/26 02:11:01;;;;;;;;;;;8.50;43.60;;;;;;6285785;22;19914;-90
2022/03/26 02:13:26;;;;;;;;;;;8.50;43.60;;;;;;6313596;22;19996;-89
2022/03/26 02:15:52;;;;;;;;;;;8.50;43.70;;;;;;6313861;22;20296;-89
2022/03/26 02:18:17;;;;;;;;;;;8.40;43.70;;;;;;6286984;22;19951;-88
2022/03/26 02:20:44;;;;;;;;;;;8.40;43.70;;;;;;6313921;22;19911;-89
2022/03/26 02:23:09;;;;;;;;;;;8.40;43.70;;;;;;6314757;22;20292;-89
2022/03/26 02:25:35;;;;;;;;;;;8.40;43.70;;;;;;6285984;22;19907;-89
2022/03/26 02:28:00;;;;;;;;;;;8.30;43.70;;;;;;6308144;22;19938;-89
2022/03/26 02:30:26;;;;;;;;;;;8.30;43.80;;;;;;6282503;22;19911;-90
2022/03/26 02:32:51;;;;;;;;;;;8.20;43.90;;;;;;6283269;22;19990;-90
2022/03/26 02:35:17;;;;;;;;;;;8.20;44.00;;;;;;6281809;22;19918;-89
2022/03/26 02:37:42;;;;;;;;;;;8.20;44.10;;;;;;6310243;22;20304;-89
2022/03/26 02:40:08;;;;;;;;;;;8.20;44.10;;;;;;6310932;22;19979;-89
2022/03/26 02:42:34;;;;;;;;;;;8.10;44.10;;;;;;6310118;22;19964;-89
2022/03/26 02:45:00;;;;;;;;;;;8.10;44.10;;;;;;6282610;22;20197;-88
2022/03/26 02:47:26;;;;;;;;;;;8.10;44.10;;;;;;6310086;22;19910;-89
2022/03/26 02:49:51;;;;;;;;;;;8.10;44.10;;;;;;6310479;22;19934;-89
2022/03/26 02:52:17;;;;;;;;;;;8.00;44.20;;;;;;6310015;22;20307;-89
2022/03/26 02:54:42;;;;;;;;;;;8.00;44.20;;;;;;6309133;22;20283;-89
2022/03/26 02:57:07;;;;;;;;;;;8.00;44.20;;;;;;6283027;22;19903;-89
2022/03/26 02:59:33;;;;;;;;;;;8.00;44.30;;;;;;6282132;22;19934;-89
2022/03/26 03:01:59;;;;;;;;;;;7.90;44.40;;;;;;6309623;22;19903;-89
2022/03/26 03:04:24;;;;;;;;;;;7.90;44.60;;;;;;6309499;22;19915;-89
2022/03/26 03:06:51;;;;;;;;;;;7.90;45.00;;;;;;6309502;22;19903;-89
2022/03/26 03:09:17;;;;;;;;;;;7.90;45.30;;;;;;6310068;22;19911;-89
2022/03/26 03:11:43;;;;;;;;;;;7.80;45.50;;;;;;6282427;22;20335;-90
2022/03/26 03:14:10;;;;;;;;;;;7.90;46.70;;;;;;6308820;22;19910;-89
2022/03/26 03:16:36;;;;;;;;;;;7.80;46.20;;;;;;6281496;22;19914;-89
2022/03/26 03:19:02;;;;;;;;;;;7.80;45.80;;;;;;6309182;22;19923;-89
2022/03/26 03:21:28;;;;;;;;;;;7.80;45.60;;;;;;6282337;22;19911;-89
2022/03/26 03:23:53;;;;;;;;;;;7.80;45.50;;;;;;6309440;22;20195;-89
2022/03/26 03:26:19;;;;;;;;;;;7.70;45.60;;;;;;6307808;22;19930;-89
2022/03/26 03:28:44;;;;;;;;;;;7.80;45.70;;;;;;6282449;22;19911;-89
2022/03/26 03:31:10;;;;;;;;;;;7.80;45.80;;;;;;6310040;22;19906;-89
2022/03/26 03:33:35;;;;;;;;;;;7.70;45.70;;;;;;6309851;22;19943;-89
2022/03/26 03:36:01;;;;;;;;;;;7.80;45.80;;;;;;6309722;22;19917;-89
2022/03/26 03:38:26;;;;;;;;;;;7.70;45.80;;;;;;6282085;22;20323;-88
2022/03/26 03:40:52;;;;;;;;;;;7.70;45.70;;;;;;6309696;22;19914;-89
2022/03/26 03:43:17;;;;;;;;;;;7.70;45.70;;;;;;6309229;22;20255;-89
2022/03/26 03:45:43;;;;;;;;;;;7.70;46.10;;;;;;6283195;22;19909;-89
2022/03/26 03:48:08;;;;;;;;;;;7.70;46.00;;;;;;6309644;22;19926;-90
2022/03/26 03:50:34;;;;;;;;;;;7.70;45.90;;;;;;6282176;22;19914;-90
2022/03/26 03:53:00;;;;;;;;;;;7.60;45.80;;;;;;6281054;22;20243;-89
2022/03/26 03:55:25;;;;;;;;;;;7.60;45.80;;;;;;6281307;22;19911;-89
2022/03/26 03:57:51;;;;;;;;;;;7.60;45.80;;;;;;6282777;22;19909;-89
2022/03/26 04:00:17;;;;;;;;;;;7.50;45.80;;;;;;6309255;22;19918;-90
2022/03/26 04:02:43;;;;;;;;;;;7.60;45.90;;;;;;6308939;22;20312;-89
2022/03/26 04:05:13;;;;;;;;;;;7.50;45.90;;;;;;6281920;22;19918;-90
2022/03/26 04:07:39;;;;;;;;;;;7.50;45.80;;;;;;6309534;22;20306;-89
2022/03/26 04:10:07;;;;;;;;;;;7.50;45.80;;;;;;6310434;22;19921;-89
2022/03/26 04:12:33;;;;;;;;;;;7.50;45.70;;;;;;6281664;22;19906;-88
2022/03/26 04:14:58;;;;;;;;;;;7.40;45.90;;;;;;6282494;22;20319;-89
2022/03/26 04:17:24;;;;;;;;;;;7.40;45.90;;;;;;6281347;22;19986;-89
2022/03/26 04:19:49;;;;;;;;;;;7.40;45.80;;;;;;6307237;22;19915;-89
2022/03/26 04:22:15;;;;;;;;;;;7.30;45.80;;;;;;6281373;22;19917;-89
2022/03/26 04:24:40;;;;;;;;;;;7.30;45.90;;;;;;6309997;22;19907;-90
2022/03/26 04:27:06;;;;;;;;;;;7.30;45.90;;;;;;6282932;22;19914;-90
2022/03/26 04:29:32;;;;;;;;;;;7.20;45.80;;;;;;6310249;22;19918;-90
2022/03/26 04:31:57;;;;;;;;;;;7.20;45.80;;;;;;6308990;22;20189;-88
2022/03/26 04:34:23;;;;;;;;;;;7.20;45.90;;;;;;6282183;22;19922;-89
2022/03/26 04:36:48;;;;;;;;;;;7.20;45.80;;;;;;6282888;22;19946;-89
2022/03/26 04:39:14;;;;;;;;;;;7.20;45.90;;;;;;6283336;22;20240;-89
2022/03/26 04:41:39;;;;;;;;;;;7.10;46.00;;;;;;6308853;22;19911;-89
2022/03/26 04:44:05;;;;;;;;;;;7.10;46.10;;;;;;6311314;22;19926;-90
2022/03/26 04:46:30;;;;;;;;;;;7.10;46.20;;;;;;6283953;22;19907;-89
2022/03/26 04:48:56;;;;;;;;;;;7.00;46.30;;;;;;6283340;22;19917;-90
2022/03/26 04:51:21;;;;;;;;;;;7.00;46.30;;;;;;6310462;22;19968;-90
2022/03/26 04:53:47;;;;;;;;;;;7.00;46.20;;;;;;6310551;22;20429;-89
2022/03/26 04:56:12;;;;;;;;;;;7.00;46.20;;;;;;6283436;22;20006;-88
2022/03/26 04:58:38;;;;;;;;;;;7.00;46.30;;;;;;6309975;22;19915;-89
2022/03/26 05:01:04;;;;;;;;;;;7.00;46.30;;;;;;6283486;22;19915;-89
2022/03/26 05:03:30;;;;;;;;;;;6.90;46.40;;;;;;6309070;22;19995;-90
2022/03/26 05:05:55;;;;;;;;;;;6.90;46.80;;;;;;6283242;22;19907;-90
2022/03/26 05:08:21;;;;;;;;;;;6.90;47.00;;;;;;6310056;22;19903;-89
2022/03/26 05:10:46;;;;;;;;;;;6.90;46.80;;;;;;6311650;22;19914;-88
2022/03/26 05:13:12;;;;;;;;;;;6.90;46.70;;;;;;6310409;22;19911;-90
2022/03/26 05:15:37;;;;;;;;;;;6.90;46.70;;;;;;6315144;22;19990;-90
2022/03/26 05:18:03;;;;;;;;;;;6.90;46.70;;;;;;6308777;22;19911;-90
2022/03/26 05:20:29;;;;;;;;;;;6.90;46.70;;;;;;6283427;22;19961;-90
2022/03/26 05:22:54;;;;;;;;;;;6.90;46.70;;;;;;6283474;22;19911;-89
2022/03/26 05:25:20;;;;;;;;;;;6.90;46.70;;;;;;6283317;22;19985;-90
2022/03/26 05:27:46;;;;;;;;;;;7.00;46.90;;;;;;6312038;22;19914;-90
2022/03/26 05:30:12;;;;;;;;;;;7.00;47.00;;;;;;6283955;22;19965;-91
2022/03/26 05:32:38;;;;;;;;;;;7.10;47.30;;;;;;6284614;22;19935;-90
2022/03/26 05:35:06;;;;;;;;;;;7.20;47.50;;;;;;6310340;22;19934;-89
2022/03/26 05:37:32;;;;;;;;;;;7.40;47.60;;;;;;6308165;22;20306;-91
2022/03/26 05:39:57;;;;;;;;;;;7.50;48.00;;;;;;6308581;22;19919;-89
2022/03/26 05:42:23;;;;;;;;;;;7.70;48.20;;;;;;6283394;22;20347;-89
2022/03/26 05:44:49;;;;;;;;;;;7.90;48.40;;;;;;6308875;22;19942;-89
2022/03/26 05:47:15;;;;;;;;;;;8.20;48.80;;;;;;6283185;22;19934;-89
2022/03/26 05:49:40;;;;;;;;;;;8.40;49.20;;;;;;6283545;22;19911;-90
2022/03/26 05:52:06;;;;;;;;;;;8.60;49.40;;;;;;6282260;22;19903;-89
2022/03/26 05:54:32;;;;;;;;;;;8.90;49.60;;;;;;6282953;22;19911;-91
2022/03/26 05:56:57;;;;;;;;;;;9.20;49.70;;;;;;6282731;22;20277;-90
2022/03/26 05:59:23;;;;;;;;;;;9.50;49.90;;;;;;6282771;22;20316;-89
2022/03/26 06:01:56;;;;;;;;;;;9.80;50.00;;;;;;6283190;22;19963;-89
2022/03/26 06:04:25;;;;;;;;;;;10.20;50.10;;;;;;6282581;22;19992;-90
2022/03/26 06:06:50;;;;;;;;;;;10.60;50.20;;;;;;6310703;22;19907;-91
2022/03/26 06:09:16;;;;;;;;;;;11.00;50.30;;;;;;6283102;22;19910;-90
2022/03/26 06:11:41;;;;;;;;;;;11.50;50.20;;;;;;6310048;22;19903;-90
2022/03/26 06:14:07;;;;;;;;;;;11.90;50.10;;;;;;6283515;22;19911;-90
2022/03/26 06:16:33;;;;;;;;;;;12.30;49.90;;;;;;6282955;22;19915;-90
2022/03/26 06:18:58;;;;;;;;;;;12.80;49.80;;;;;;6282921;22;19964;-90
2022/03/26 06:21:24;;;;;;;;;;;13.20;49.70;;;;;;6309644;22;19907;-90
2022/03/26 06:23:49;;;;;;;;;;;13.70;49.60;;;;;;6308814;22;19906;-90
2022/03/26 06:26:15;;;;;;;;;;;14.20;49.40;;;;;;6312031;22;19927;-90
2022/03/26 06:28:40;;;;;;;;;;;14.70;48.90;;;;;;6309919;22;19907;-89
2022/03/26 06:31:08;;;;;;;;;;;15.10;48.40;;;;;;6284236;22;19939;-90
2022/03/26 06:33:34;;;;;;;;;;;15.50;47.10;;;;;;6310753;22;19907;-90
2022/03/26 06:36:01;;;;;;;;;;;15.90;45.70;;;;;;6310125;22;19914;-90
2022/03/26 06:38:31;;;;;;;;;;;16.20;45.20;;;;;;6310486;22;19965;-90
2022/03/26 06:40:59;;;;;;;;;;;16.70;45.00;;;;;;6310367;22;19911;-89
2022/03/26 06:43:24;;;;;;;;;;;17.20;44.90;;;;;;6311559;22;20022;-91
2022/03/26 06:45:50;;;;;;;;;;;17.70;44.60;;;;;;6310861;22;19911;-91
2022/03/26 06:48:15;;;;;;;;;;;18.10;44.40;;;;;;6311084;22;19903;-90
2022/03/26 06:50:42;;;;;;;;;;;18.60;43.70;;;;;;6284545;22;19907;-91
2022/03/26 06:53:07;;;;;;;;;;;19.00;42.80;;;;;;6284858;22;19914;-90
2022/03/26 06:55:33;;;;;;;;;;;19.50;42.70;;;;;;6313885;22;19914;-91
2022/03/26 06:57:58;;;;;;;;;;;20.00;42.40;;;;;;6285053;22;20326;-91
2022/03/26 07:00:24;;;;;;;;;;;20.40;42.00;;;;;;6311219;22;19960;-90
2022/03/26 07:02:49;;;;;;;;;;;21.00;41.40;;;;;;6312277;22;19907;-91
2022/03/26 07:05:15;;;;;;;;;;;21.50;40.50;;;;;;6284892;22;19911;-91
2022/03/26 07:07:41;;;;;;;;;;;21.90;39.40;;;;;;6311736;22;19983;-91
2022/03/26 07:10:07;;;;;;;;;;;22.30;39.00;;;;;;6312183;22;19907;-92
2022/03/26 07:12:32;;;;;;;;;;;22.70;37.80;;;;;;6284252;22;20035;-91
2022/03/26 07:14:58;;;;;;;;;;;23.20;36.70;;;;;;6310764;22;19907;-90
2022/03/26 07:17:24;;;;;;;;;;;23.60;36.00;;;;;;6311800;22;19947;-90
2022/03/26 07:19:51;;;;;;;;;;;23.90;34.90;;;;;;6284263;22;19915;-91
2022/03/26 07:22:17;;;;;;;;;;;24.30;33.30;;;;;;6310922;22;20303;-91
2022/03/26 07:24:42;;;;;;;;;;;24.60;32.00;;;;;;6285575;22;19907;-91
2022/03/26 07:27:09;;;;;;;;;;;24.90;31.70;;;;;;6311185;22;19907;-90
2022/03/26 07:29:38;;;;;;;;;;;25.30;31.70;;;;;;6314684;22;19963;-91
2022/03/26 07:32:07;;;;;;;;;;;25.70;31.30;;;;;;6311648;22;19915;-92
2022/03/26 07:34:32;;;;;;;;;;;26.00;31.00;;;;;;6309696;22;20002;-91
2022/03/26 07:36:58;;;;;;;;;;;26.40;30.50;;;;;;6282964;22;20308;-92
2022/03/26 07:39:23;;;;;;;;;;;26.80;30.30;;;;;;6283525;22;19918;-91
2022/03/26 07:41:49;;;;;;;;;;;27.20;30.00;;;;;;6311490;22;19918;-91
2022/03/26 07:44:15;;;;;;;;;;;27.50;29.50;;;;;;6284873;22;20024;-91
2022/03/26 07:46:40;;;;;;;;;;;28.00;29.10;;;;;;6284147;22;19906;-92
2022/03/26 07:49:06;;;;;;;;;;;28.30;28.40;;;;;;6283941;22;19989;-91
2022/03/26 07:51:31;;;;;;;;;;;28.60;27.60;;;;;;6309594;22;20374;-91
2022/03/26 07:53:57;;;;;;;;;;;28.90;27.40;;;;;;6283764;22;20270;-90
2022/03/26 07:56:23;;;;;;;;;;;29.20;26.90;;;;;;6309329;22;19911;-90
2022/03/26 07:58:49;;;;;;;;;;;29.50;26.60;;;;;;6283168;22;19934;-90
2022/03/26 08:01:14;;;;;;;;;;;29.80;26.00;;;;;;6310636;22;20001;-90
2022/03/26 08:03:40;;;;;;;;;;;30.00;25.30;;;;;;6284807;22;20262;-90
2022/03/26 08:06:06;;;;;;;;;;;30.20;24.80;;;;;;6311443;22;19946;-92
2022/03/26 08:08:31;;;;;;;;;;;30.50;25.00;;;;;;6310348;22;19964;-91
2022/03/26 08:10:57;;;;;;;;;;;30.70;24.70;;;;;;6283312;22;19932;-92
2022/03/26 08:13:22;;;;;;;;;;;31.00;24.60;;;;;;6309622;22;19915;-92
2022/03/26 08:15:48;;;;;;;;;;;31.30;24.40;;;;;;6310879;22;19911;-90
2022/03/26 08:18:15;;;;;;;;;;;31.40;24.10;;;;;;6283180;22;19910;-91
2022/03/26 08:20:41;;;;;;;;;;;31.80;24.00;;;;;;6311125;22;19930;-90
2022/03/26 08:23:10;;;;;;;;;;;32.00;23.60;;;;;;6312319;22;19903;-91
2022/03/26 08:28:20;;;;;;;;;;;32.50;23.00;;;;;;6309254;22;20001;-89
2022/03/26 08:30:46;;;;;;;;;;;32.80;22.70;;;;;;6283761;22;20602;-91
2022/03/26 08:33:11;;;;;;;;;;;33.00;21.80;;;;;;6309719;22;19909;-92
2022/03/26 08:35:41;;;;;;;;;;;33.30;21.90;;;;;;6283545;22;19911;-90
2022/03/26 08:38:07;;;;;;;;;;;33.50;21.80;;;;;;6283247;22;19903;-90
2022/03/26 08:40:33;;;;;;;;;;;33.80;21.50;;;;;;6310844;22;19961;-90
2022/03/26 08:42:59;;;;;;;;;;;34.00;21.30;;;;;;6308938;22;19910;-91
2022/03/26 08:45:26;;;;;;;;;;;34.20;20.80;;;;;;6309787;22;19907;-90
2022/03/26 08:47:51;;;;;;;;;;;34.30;20.60;;;;;;6283579;22;19957;-90
2022/03/26 08:50:17;;;;;;;;;;;34.50;20.20;;;;;;6284873;22;19919;-90
2022/03/26 08:52:42;;;;;;;;;;;34.70;20.20;;;;;;6284515;22;20012;-91
2022/03/26 08:55:08;;;;;;;;;;;34.80;19.90;;;;;;6311683;22;19907;-90
2022/03/26 08:57:34;;;;;;;;;;;35.00;19.80;;;;;;6283539;22;19942;-90
2022/03/26 08:59:59;;;;;;;;;;;35.10;19.60;;;;;;6283127;22;20247;-91
2022/03/26 09:02:24;;;;;;;;;;;35.20;19.40;;;;;;6310445;22;20017;-90
2022/03/26 09:04:50;;;;;;;;;;;35.20;19.00;;;;;;6283649;22;19914;-90
2022/03/26 09:07:15;;;;;;;;;;;35.30;18.40;;;;;;6310259;22;19914;-90
2022/03/26 09:09:41;;;;;;;;;;;35.20;18.50;;;;;;6311577;22;19911;-90
2022/03/26 09:12:07;;;;;;;;;;;35.30;18.60;;;;;;6282283;22;19906;-89
2022/03/26 09:14:32;;;;;;;;;;;35.40;18.60;;;;;;6283345;22;20367;-91
2022/03/26 09:16:58;;;;;;;;;;;35.50;18.50;;;;;;6310083;22;19909;-90
2022/03/26 09:19:23;;;;;;;;;;;35.60;18.80;;;;;;6283696;22;19915;-91
2022/03/26 09:21:49;;;;;;;;;;;35.80;18.90;;;;;;6282091;22;19938;-91
2022/03/26 09:24:15;;;;;;;;;;;35.90;18.10;;;;;;6311108;22;19911;-91
2022/03/26 09:26:41;;;;;;;;;;;35.80;17.70;;;;;;6283611;22;20292;-92
2022/03/26 09:29:07;;;;;;;;;;;35.80;17.80;;;;;;6309873;22;19936;-91
2022/03/26 09:31:32;;;;;;;;;;;35.80;17.90;;;;;;6284098;22;19911;-90
2022/03/26 09:33:58;;;;;;;;;;;35.80;17.90;;;;;;6308814;22;19956;-90
2022/03/26 09:36:23;;;;;;;;;;;35.90;17.60;;;;;;6309909;22;19989;-91
2022/03/26 09:38:48;;;;;;;;;;;36.00;17.70;;;;;;6282163;22;19910;-91
2022/03/26 09:41:16;;;;;;;;;;;36.00;17.40;;;;;;6282786;22;20166;-91
2022/03/26 09:43:41;;;;;;;;;;;35.80;17.00;;;;;;6310483;22;19911;-90
2022/03/26 09:46:07;;;;;;;;;;;35.60;16.50;;;;;;6282232;22;19907;-91
2022/03/26 09:48:32;;;;;;;;;;;35.20;16.60;;;;;;6310212;22;19954;-90
2022/03/26 09:50:58;;;;;;;;;;;34.90;17.10;;;;;;6311125;22;20280;-90
2022/03/26 09:53:25;;;;;;;;;;;34.90;17.60;;;;;;6283289;22;19910;-89
2022/03/26 09:55:51;;;;;;;;;;;34.90;16.90;;;;;;6283396;22;19996;-92
2022/03/26 09:58:17;;;;;;;;;;;34.70;16.90;;;;;;6310728;22;19986;-90
2022/03/26 10:00:42;;;;;;;;;;;34.60;17.10;;;;;;6283773;22;19937;-91
2022/03/26 10:03:08;;;;;;;;;;;34.50;17.20;;;;;;6282224;22;19994;-89
2022/03/26 10:05:34;;;;;;;;;;;34.30;17.30;;;;;;6283664;22;20279;-91
2022/03/26 10:08:16;;;;;;;;;;;34.30;17.40;;;;;;6310741;22;20340;-91
2022/03/26 10:10:42;;;;;;;;;;;34.40;17.30;;;;;;6283179;22;20334;-90
2022/03/26 10:13:08;;;;;;;;;;;34.30;17.00;;;;;;6311157;22;20048;-89
2022/03/26 10:15:33;;;;;;;;;;;34.20;17.10;;;;;;6311024;22;19919;-90
2022/03/26 10:18:07;;;;;;;;;;;34.10;17.20;;;;;;6310809;22;19985;-90
2022/03/26 10:20:33;;;;;;;;;;;33.90;16.80;;;;;;6282890;22;20503;-90
2022/03/26 10:22:58;;;;;;;;;;;33.60;17.20;;;;;;6283688;22;19914;-90
2022/03/26 10:25:24;;;;;;;;;;;33.50;17.40;;;;;;6283556;22;20284;-90
2022/03/26 10:27:50;;;;;;;;;;;33.50;17.30;;;;;;6308425;22;19981;-90
2022/03/26 10:30:17;;;;;;;;;;;33.30;17.20;;;;;;6283406;22;19998;-91
2022/03/26 10:32:49;;;;;;;;;;;33.20;17.30;;;;;;6283012;22;19907;-91
2022/03/26 10:35:25;;;;;;;;;;;33.00;17.50;;;;;;6310300;22;20277;-90
2022/03/26 10:37:58;;;;;;;;;;;32.80;17.70;;;;;;6311596;22;19911;-90
2022/03/26 10:40:32;;;;;;;;;;;32.70;18.10;;;;;;6283580;22;19911;-89
2022/03/26 10:42:59;;;;;;;;;;;32.80;18.40;;;;;;6284949;22;19929;-91
2022/03/26 10:45:25;;;;;;;;;;;33.00;18.40;;;;;;6287260;22;19937;-91
2022/03/26 10:47:55;;;;;;;;;;;33.30;18.50;;;;;;6316655;22;19910;-91
2022/03/26 10:50:20;;;;;;;;;;;33.60;18.30;;;;;;6289119;22;20219;-92
2022/03/26 10:52:46;;;;;;;;;;;33.70;17.60;;;;;;6315716;22;19911;-91
2022/03/26 10:55:13;;;;;;;;;;;33.50;17.20;;;;;;6288015;22;19960;-93
2022/03/26 10:57:39;;;;;;;;;;;33.20;17.50;;;;;;6288889;22;19906;-91
2022/03/26 11:00:05;;;;;;;;;;;33.10;17.90;;;;;;6286289;22;19921;-91
2022/03/26 11:02:30;;;;;;;;;;;33.30;18.20;;;;;;6315947;22;19910;-92
2022/03/26 11:04:56;;;;;;;;;;;33.60;18.20;;;;;;6286978;22;19929;-90
2022/03/26 11:07:25;;;;;;;;;;;33.80;17.80;;;;;;6285846;22;19907;-92
2022/03/26 11:09:54;;;;;;;;;;;33.90;17.70;;;;;;6287121;22;19911;-91
2022/03/26 11:12:20;;;;;;;;;;;34.00;17.60;;;;;;6287126;22;20033;-92
2022/03/26 11:25:47;;;;;;;;;;;34.20;17.50;;;;;;6341304;22;19915;-91
2022/03/26 11:28:31;;;;;;;;;;;34.60;17.00;;;;;;6321119;22;19907;-90
2022/03/26 11:30:58;;;;;;;;;;;34.50;17.20;;;;;;6291620;22;19934;-91
2022/03/26 11:33:23;;;;;;;;;;;34.50;17.40;;;;;;6291534;22;19911;-90
2022/03/26 11:35:57;;;;;;;;;;;34.30;17.00;;;;;;6291819;22;19994;-90
2022/03/26 11:38:23;;;;;;;;;;;34.20;17.30;;;;;;6292653;22;19922;-91
2022/03/26 11:40:54;;;;;;;;;;;34.20;17.50;;;;;;6294675;22;19915;-90
2022/03/26 11:43:45;;;;;;;;;;;34.30;17.30;;;;;;6320674;22;19913;-91
2022/03/26 11:51:51;;;;;;;;;;;34.20;17.40;;;;;;6323786;22;19914;-90
2022/03/26 11:54:18;;;;;;;;;;;34.40;17.70;;;;;;6296225;22;19922;-91
2022/03/26 11:56:47;;;;;;;;;;;34.70;17.80;;;;;;6322712;22;19907;-91
2022/03/26 11:59:15;;;;;;;;;;;34.70;17.40;;;;;;6293271;22;19914;-90
2022/03/26 12:01:42;;;;;;;;;;;34.70;17.40;;;;;;6293280;22;19911;-90
2022/03/26 12:04:11;;;;;;;;;;;34.50;17.60;;;;;;6297000;22;19915;-91
2022/03/26 12:06:43;;;;;;;;;;;34.40;17.40;;;;;;6296233;22;19929;-91
2022/03/26 12:09:10;;;;;;;;;;;34.20;17.40;;;;;;6296169;22;19911;-91
2022/03/26 12:11:37;;;;;;;;;;;33.80;17.70;;;;;;6322852;22;20628;-91
2022/03/26 12:14:04;;;;;;;;;;;33.70;18.00;;;;;;6293144;22;19915;-91
2022/03/26 12:16:48;;;;;;;;;;;33.70;17.60;;;;;;6328891;22;19911;-92
2022/03/26 12:19:32;;;;;;;;;;;33.40;17.90;;;;;;6322393;22;19914;-91
2022/03/26 12:21:58;;;;;;;;;;;33.30;18.00;;;;;;6350250;22;20325;-90
2022/03/26 12:24:28;;;;;;;;;;;33.20;18.20;;;;;;6348879;22;19915;-91
2022/03/26 12:26:54;;;;;;;;;;;33.00;18.30;;;;;;6316119;22;19906;-90
2022/03/26 12:29:19;;;;;;;;;;;32.80;18.40;;;;;;6314401;22;20216;-90
2022/03/26 12:31:49;;;;;;;;;;;32.70;18.40;;;;;;6315801;22;20000;-90
2022/03/26 12:34:15;;;;;;;;;;;32.50;18.60;;;;;;6315835;22;19922;-91
2022/03/26 12:36:40;;;;;;;;;;;32.30;18.80;;;;;;6316616;22;19910;-90
2022/03/26 12:39:06;;;;;;;;;;;32.20;19.00;;;;;;6342991;22;20303;-91
2022/03/26 12:41:31;;;;;;;;;;;32.10;19.10;;;;;;6343132;22;19932;-90
2022/03/26 12:44:01;;;;;;;;;;;32.10;19.20;;;;;;6315664;22;20000;-90
2022/03/26 12:46:32;;;;;;;;;;;31.80;19.30;;;;;;6315641;22;19997;-90
2022/03/26 12:48:58;;;;;;;;;;;31.70;19.50;;;;;;6315873;22;19914;-89
2022/03/26 12:51:42;;;;;;;;;;;31.40;19.60;;;;;;6345817;22;19924;-91
2022/03/26 12:54:08;;;;;;;;;;;31.40;19.90;;;;;;6317120;22;19926;-91
2022/03/26 12:56:34;;;;;;;;;;;31.20;19.90;;;;;;6315543;22;19971;-91
2022/03/26 12:59:00;;;;;;;;;;;31.10;20.00;;;;;;6317497;22;20303;-91
2022/03/26 13:01:26;;;;;;;;;;;31.00;20.30;;;;;;6318204;22;19918;-91
2022/03/26 13:03:53;;;;;;;;;;;30.80;20.50;;;;;;6344908;22;19915;-91
2022/03/26 13:06:21;;;;;;;;;;;30.90;20.70;;;;;;6344925;22;20401;-92
2022/03/26 13:08:48;;;;;;;;;;;30.90;20.70;;;;;;6318222;22;19952;-92
2022/03/26 13:11:13;;;;;;;;;;;30.90;20.50;;;;;;6291310;22;19989;-90
2022/03/26 13:13:45;;;;;;;;;;;31.00;20.70;;;;;;6344147;22;19915;-90
2022/03/26 13:16:13;;;;;;;;;;;31.00;20.80;;;;;;6344337;22;19910;-91
2022/03/26 13:18:47;;;;;;;;;;;31.20;20.70;;;;;;6316620;22;19907;-91
2022/03/26 13:21:14;;;;;;;;;;;31.00;20.50;;;;;;6344601;22;19929;-90
2022/03/26 13:23:50;;;;;;;;;;;30.70;20.60;;;;;;6342411;22;19911;-91
2022/03/26 13:26:16;;;;;;;;;;;30.50;20.80;;;;;;6340843;22;19911;-90
2022/03/26 13:28:41;;;;;;;;;;;30.30;20.90;;;;;;6344276;22;20390;-92
2022/03/26 13:31:19;;;;;;;;;;;30.10;21.00;;;;;;6315193;22;20276;-91
2022/03/26 13:33:45;;;;;;;;;;;29.80;21.10;;;;;;6314700;22;20004;-91
2022/03/26 13:36:10;;;;;;;;;;;29.30;21.50;;;;;;6313850;22;19914;-90
2022/03/26 13:38:39;;;;;;;;;;;28.80;21.90;;;;;;6314323;22;19933;-90
2022/03/26 13:41:24;;;;;;;;;;;28.40;22.40;;;;;;6314727;22;19911;-91
2022/03/26 13:43:50;;;;;;;;;;;28.00;23.00;;;;;;6343544;22;19925;-90
2022/03/26 13:46:16;;;;;;;;;;;27.40;23.50;;;;;;6316346;22;19907;-91
2022/03/26 13:48:48;;;;;;;;;;;27.00;24.00;;;;;;6289436;22;19914;-91
2022/03/26 13:51:13;;;;;;;;;;;26.70;24.40;;;;;;6343020;22;19914;-90
2022/03/26 13:53:40;;;;;;;;;;;26.40;24.80;;;;;;6341478;22;19933;-91
2022/03/26 13:56:08;;;;;;;;;;;26.20;25.20;;;;;;6313693;22;19910;-89
2022/03/26 13:58:34;;;;;;;;;;;25.90;25.40;;;;;;6314964;22;19957;-90
2022/03/26 14:01:04;;;;;;;;;;;25.70;25.60;;;;;;6315518;22;20269;-92
2022/03/26 14:03:40;;;;;;;;;;;25.50;26.00;;;;;;6345227;22;20235;-91
2022/03/26 14:06:06;;;;;;;;;;;25.30;26.30;;;;;;6317501;22;20235;-90
2022/03/26 14:08:31;;;;;;;;;;;25.20;26.50;;;;;;6341612;22;19906;-90
2022/03/26 14:10:57;;;;;;;;;;;25.00;26.50;;;;;;6314592;22;19921;-90
2022/03/26 14:13:22;;;;;;;;;;;25.00;26.70;;;;;;6314622;22;20276;-90
2022/03/26 14:15:51;;;;;;;;;;;25.00;26.70;;;;;;6314636;22;19922;-90
2022/03/26 14:18:18;;;;;;;;;;;25.00;26.90;;;;;;6313993;22;20346;-90
2022/03/26 14:20:44;;;;;;;;;;;24.90;27.10;;;;;;6314397;22;19907;-91
2022/03/26 14:23:10;;;;;;;;;;;24.80;27.20;;;;;;6314933;22;19963;-91
2022/03/26 14:25:38;;;;;;;;;;;24.70;27.60;;;;;;6341557;22;20242;-91
2022/03/26 14:28:13;;;;;;;;;;;24.60;27.90;;;;;;6313682;22;19917;-90
2022/03/26 14:30:39;;;;;;;;;;;24.50;27.90;;;;;;6316429;22;19977;-90
2022/03/26 14:33:04;;;;;;;;;;;24.50;28.00;;;;;;6316108;22;19937;-90
2022/03/26 14:35:30;;;;;;;;;;;24.50;28.10;;;;;;6317621;22;19932;-91
2022/03/26 14:37:57;;;;;;;;;;;24.40;28.20;;;;;;6318116;22;19930;-90